createdAt,value
2023-04-14T00:00:41.998Z,1.98
2023-04-14T00:05:43.444Z,2.13
2023-04-14T00:10:44.712Z,2.25
2023-04-14T00:15:46.009Z,2.30
2023-04-14T00:20:47.851Z,2.05
2023-04-14T00:25:49.620Z,2.05
2023-04-14T00:30:51.035Z,2.25
2023-04-14T00:35:52.343Z,1.90
2023-04-14T00:40:59.048Z,2.30
2023-04-14T00:46:00.477Z,2.13
2023-04-14T00:51:02.109Z,2.15
2023-04-14T00:56:03.568Z,2.53
2023-04-14T01:01:05.075Z,2.10
2023-04-14T01:06:06.581Z,2.58
2023-04-14T01:11:25.346Z,2.40
2023-04-14T01:16:32.085Z,2.58
2023-04-14T01:21:37.608Z,2.58
2023-04-14T01:26:39.088Z,3.20
2023-04-14T01:31:59.025Z,2.90
2023-04-14T01:37:08.086Z,3.83
2023-04-14T01:42:11.445Z,4.50
2023-04-14T01:47:14.597Z,3.80
2023-04-14T01:52:17.031Z,3.65
2023-04-14T01:57:18.983Z,3.20
2023-04-14T02:02:21.787Z,3.22
2023-04-14T02:07:23.818Z,3.40
2023-04-14T02:12:26.185Z,3.75
2023-04-14T02:17:28.208Z,3.50
2023-04-14T02:22:29.649Z,3.60
2023-04-14T02:27:36.636Z,3.15
2023-04-14T02:32:39.835Z,3.15
2023-04-14T02:37:43.831Z,3.47
2023-04-14T02:42:48.340Z,3.28
2023-04-14T02:47:53.247Z,3.22
2023-04-14T02:52:55.416Z,3.17
2023-04-14T02:57:57.311Z,3.40
2023-04-14T03:02:59.783Z,3.22
2023-04-14T03:08:02.674Z,3.22
2023-04-14T03:13:04.660Z,3.67
2023-04-14T03:18:07.039Z,3.58
2023-04-14T03:23:09.354Z,3.40
2023-04-14T03:28:13.211Z,3.10
2023-04-14T03:33:17.351Z,4.78
2023-04-14T03:38:20.084Z,4.15
2023-04-14T03:43:22.437Z,4.13
2023-04-14T03:48:26.507Z,4.05
2023-04-14T03:53:29.425Z,4.25
2023-04-14T03:58:31.539Z,4.53
2023-04-14T04:03:34.211Z,4.32
2023-04-14T04:08:36.281Z,4.30
2023-04-14T04:13:37.874Z,4.55
2023-04-14T04:18:39.535Z,4.40
2023-04-14T04:23:41.586Z,4.13
2023-04-14T04:28:43.155Z,4.63
2023-04-14T04:33:46.718Z,3.60
2023-04-14T04:38:48.236Z,3.95
2023-04-14T04:43:49.679Z,4.22
2023-04-14T04:48:51.947Z,3.60
2023-04-14T04:53:53.236Z,3.25
2023-04-14T04:58:54.618Z,4.22
2023-04-14T05:03:56.151Z,3.60
2023-04-14T05:08:57.792Z,3.17
2023-04-14T05:13:59.215Z,4.13
2023-04-14T05:19:01.056Z,4.15
2023-04-14T05:24:02.720Z,3.55
2023-04-14T05:29:04.141Z,3.70
2023-04-14T05:34:05.486Z,4.43
2023-04-14T05:39:06.757Z,3.75
2023-04-14T05:44:08.110Z,4.43
2023-04-14T05:49:09.364Z,3.70
2023-04-14T05:54:10.657Z,4.35
2023-04-14T05:59:12.020Z,3.88
2023-04-14T06:04:13.445Z,4.07
2023-04-14T06:09:15.051Z,4.20
2023-04-14T06:14:16.423Z,4.38
2023-04-14T06:19:17.833Z,4.03
2023-04-14T06:24:20.954Z,3.60
2023-04-14T06:29:22.313Z,3.70
2023-04-14T06:34:24.033Z,3.88
2023-04-14T06:39:25.432Z,3.92
2023-04-14T06:44:26.782Z,4.07
2023-04-14T06:49:28.366Z,4.32
2023-04-14T06:54:30.268Z,3.97
2023-04-14T06:59:31.517Z,4.85
2023-04-14T07:04:32.993Z,4.30
2023-04-14T07:09:34.329Z,4.13
2023-04-14T07:14:35.661Z,3.70
2023-04-14T07:19:37.075Z,4.13
2023-04-14T07:24:38.582Z,4.00
2023-04-14T07:29:40.232Z,4.30
2023-04-14T07:34:41.583Z,4.00
2023-04-14T07:39:45.068Z,3.60
2023-04-14T07:44:49.564Z,3.65
2023-04-14T07:49:51.257Z,4.13
2023-04-14T07:54:52.997Z,3.60
2023-04-14T07:59:54.316Z,4.05
2023-04-14T08:04:55.675Z,3.88
2023-04-14T08:09:57.144Z,4.15
2023-04-14T08:14:58.500Z,3.50
2023-04-14T08:19:59.935Z,3.28
2023-04-14T08:25:01.487Z,3.85
2023-04-14T08:30:02.849Z,3.42
2023-04-14T08:35:37.932Z,4.13
2023-04-14T08:40:31.071Z,3.03
2023-04-14T08:45:32.642Z,3.85
2023-04-14T08:50:37.994Z,2.97
2023-04-14T08:55:40.012Z,3.33
2023-04-14T09:00:41.411Z,3.58
2023-04-14T09:05:42.785Z,2.78
2023-04-14T09:10:44.717Z,2.58
2023-04-14T09:15:46.143Z,2.15
2023-04-14T09:20:47.580Z,2.60
2023-04-14T09:26:09.249Z,2.38
2023-04-14T09:31:11.452Z,1.80
2023-04-14T09:36:20.122Z,2.03
2023-04-14T09:41:22.493Z,2.10
2023-04-14T09:46:23.892Z,2.70
2023-04-14T09:51:29.019Z,2.45
2023-04-14T09:56:30.430Z,1.80
2023-04-14T10:01:32.640Z,2.20
2023-04-14T10:06:34.095Z,2.03
2023-04-14T10:11:35.510Z,1.98
2023-04-14T10:16:37.050Z,1.90
2023-04-14T10:21:38.457Z,1.77
2023-04-14T10:26:40.060Z,1.70
2023-04-14T10:31:46.474Z,2.13
2023-04-14T10:36:47.938Z,2.33
2023-04-14T10:41:51.436Z,2.72
2023-04-14T10:46:52.945Z,1.58
2023-04-14T10:51:54.472Z,1.70
2023-04-14T10:57:11.795Z,1.40
2023-04-14T11:02:25.761Z,1.35
2023-04-14T11:07:28.476Z,1.70
2023-04-14T11:12:29.761Z,1.65
2023-04-14T11:17:31.310Z,1.92
2023-04-14T11:22:38.752Z,1.60
2023-04-14T11:27:40.497Z,1.63
2023-04-14T11:33:00.424Z,1.10
2023-04-14T11:38:01.912Z,1.67
2023-04-14T11:43:05.766Z,1.60
2023-04-14T11:48:07.214Z,1.50
2023-04-14T11:53:09.658Z,1.63
2023-04-14T11:58:12.357Z,1.50
2023-04-14T12:03:13.896Z,1.30
2023-04-14T12:08:15.349Z,1.15
2023-04-14T12:13:18.836Z,1.40
2023-04-14T12:23:27.009Z,1.30
2023-04-14T12:28:29.270Z,1.60
2023-04-14T12:33:32.095Z,1.63
2023-04-14T12:38:33.880Z,1.23
2023-04-14T12:43:36.309Z,1.45
2023-04-14T12:48:47.645Z,1.65
2023-04-14T12:53:48.899Z,1.50
2023-04-14T12:58:50.486Z,1.30
2023-04-14T13:03:53.303Z,1.30
2023-04-14T13:08:55.304Z,1.25
2023-04-14T13:13:56.627Z,1.33
2023-04-14T13:18:57.949Z,1.00
2023-04-14T13:23:59.305Z,1.08
2023-04-14T13:29:01.461Z,1.58
2023-04-14T13:34:02.768Z,1.70
2023-04-14T13:39:04.566Z,1.67
2023-04-14T13:44:05.880Z,1.50
2023-04-14T13:49:07.232Z,1.42
2023-04-14T13:54:08.737Z,1.40
2023-04-14T13:59:09.982Z,1.35
2023-04-14T14:04:11.405Z,1.60
2023-04-14T14:09:12.710Z,1.63
2023-04-14T14:14:13.975Z,1.33
2023-04-14T14:19:17.108Z,1.60
2023-04-14T14:24:18.808Z,1.48
2023-04-14T14:29:20.190Z,1.67
2023-04-14T14:34:21.560Z,1.35
2023-04-14T14:39:22.822Z,1.50
2023-04-14T14:44:24.580Z,1.30
2023-04-14T14:49:26.553Z,1.30
2023-04-14T14:54:27.825Z,1.30
2023-04-14T14:59:29.182Z,1.45
2023-04-14T15:04:30.683Z,1.10
2023-04-14T15:09:32.062Z,1.40
2023-04-14T15:14:33.429Z,1.08
2023-04-14T15:19:34.816Z,1.30
2023-04-14T15:24:36.140Z,1.55
2023-04-14T15:29:37.526Z,1.02
2023-04-14T15:34:38.944Z,1.60
2023-04-14T15:39:40.329Z,1.65
2023-04-14T15:44:41.635Z,1.40
2023-04-14T15:49:42.848Z,1.48
2023-04-14T15:54:49.746Z,1.20
2023-04-14T15:59:51.131Z,1.20
2023-04-14T16:04:53.134Z,1.17
2023-04-14T16:09:54.439Z,1.05
2023-04-14T16:14:55.713Z,1.02
2023-04-14T16:19:57.182Z,1.23
2023-04-14T16:25:00.874Z,1.23
2023-04-14T16:30:02.420Z,1.10
2023-04-14T16:35:03.903Z,1.20
2023-04-14T16:40:05.566Z,1.40
2023-04-14T16:45:07.065Z,1.40
2023-04-14T16:50:08.782Z,1.20
2023-04-14T16:55:10.302Z,1.23
2023-04-14T17:00:11.945Z,1.40
2023-04-14T17:05:13.431Z,1.02
2023-04-14T17:10:15.103Z,1.20
2023-04-14T17:15:16.421Z,1.23
2023-04-14T17:20:17.785Z,1.33
2023-04-14T17:25:19.136Z,1.30
2023-04-14T17:30:20.443Z,1.20
2023-04-14T17:35:21.759Z,1.00
2023-04-14T17:40:23.079Z,1.63
2023-04-14T17:45:24.401Z,2.55
2023-04-14T17:50:25.832Z,2.92
2023-04-14T17:55:27.096Z,1.55
2023-04-14T18:00:28.420Z,1.55
2023-04-14T18:05:29.749Z,1.20
2023-04-14T18:10:31.365Z,1.10
2023-04-14T18:15:32.659Z,1.38
2023-04-14T18:20:33.947Z,1.45
2023-04-14T18:30:39.503Z,1.30
2023-04-14T18:35:40.801Z,1.67
2023-04-14T18:40:42.184Z,1.88
2023-04-14T18:50:56.687Z,1.58
2023-04-14T18:55:58.114Z,2.00
2023-04-14T19:00:59.462Z,1.50
2023-04-14T19:06:00.842Z,1.85
2023-04-14T19:11:02.299Z,1.80
2023-04-14T19:16:06.637Z,2.17
2023-04-14T19:21:08.063Z,2.50
2023-04-14T19:26:09.454Z,2.72
2023-04-14T19:31:10.764Z,3.03
